sensor_id;sensor_type;location;lat;lon;timestamp;P1;durP1;ratioP1;P2;durP2;ratioP2
9834;SDS011;4956;50.996;13.716;2023-03-13T00:03:18;9.60;;;3.45;;
9834;SDS011;4956;50.996;13.716;2023-03-13T00:06:39;13.05;;;4.10;;
9834;SDS011;4956;50.996;13.716;2023-03-13T00:09:59;10.00;;;3.63;;
9834;SDS011;4956;50.996;13.716;2023-03-13T00:13:20;10.52;;;3.53;;
9834;SDS011;4956;50.996;13.716;2023-03-13T00:16:40;12.93;;;4.32;;
9834;SDS011;4956;50.996;13.716;2023-03-13T00:20:00;13.50;;;4.00;;
9834;SDS011;4956;50.996;13.716;2023-03-13T00:23:21;9.73;;;3.08;;
9834;SDS011;4956;50.996;13.716;2023-03-13T00:26:41;17.80;;;3.72;;
9834;SDS011;4956;50.996;13.716;2023-03-13T00:30:01;10.57;;;3.85;;
9834;SDS011;4956;50.996;13.716;2023-03-13T00:33:22;13.80;;;4.10;;
9834;SDS011;4956;50.996;13.716;2023-03-13T00:36:42;15.18;;;3.72;;
9834;SDS011;4956;50.996;13.716;2023-03-13T00:40:03;10.90;;;3.45;;
9834;SDS011;4956;50.996;13.716;2023-03-13T00:43:24;10.40;;;3.55;;
9834;SDS011;4956;50.996;13.716;2023-03-13T00:46:44;11.98;;;3.78;;
9834;SDS011;4956;50.996;13.716;2023-03-13T00:50:05;11.20;;;3.38;;
9834;SDS011;4956;50.996;13.716;2023-03-13T00:53:26;12.45;;;3.58;;
9834;SDS011;4956;50.996;13.716;2023-03-13T00:56:46;8.88;;;3.08;;
9834;SDS011;4956;50.996;13.716;2023-03-13T01:00:07;16.23;;;3.55;;
9834;SDS011;4956;50.996;13.716;2023-03-13T01:03:28;12.07;;;3.08;;
9834;SDS011;4956;50.996;13.716;2023-03-13T01:06:48;14.57;;;3.45;;
9834;SDS011;4956;50.996;13.716;2023-03-13T01:10:09;15.75;;;3.72;;
9834;SDS011;4956;50.996;13.716;2023-03-13T01:13:30;11.73;;;2.70;;
9834;SDS011;4956;50.996;13.716;2023-03-13T01:16:52;9.45;;;2.90;;
9834;SDS011;4956;50.996;13.716;2023-03-13T01:20:12;14.75;;;3.03;;
9834;SDS011;4956;50.996;13.716;2023-03-13T01:23:32;11.77;;;3.58;;
9834;SDS011;4956;50.996;13.716;2023-03-13T01:26:53;16.45;;;3.50;;
9834;SDS011;4956;50.996;13.716;2023-03-13T01:30:13;12.23;;;2.80;;
9834;SDS011;4956;50.996;13.716;2023-03-13T01:33:33;10.57;;;2.83;;
9834;SDS011;4956;50.996;13.716;2023-03-13T01:36:53;8.80;;;2.50;;
9834;SDS011;4956;50.996;13.716;2023-03-13T01:40:14;10.48;;;3.30;;
9834;SDS011;4956;50.996;13.716;2023-03-13T01:43:35;14.38;;;3.25;;
9834;SDS011;4956;50.996;13.716;2023-03-13T01:46:56;12.73;;;3.20;;
9834;SDS011;4956;50.996;13.716;2023-03-13T01:50:19;13.15;;;3.22;;
9834;SDS011;4956;50.996;13.716;2023-03-13T01:53:57;10.13;;;2.90;;
9834;SDS011;4956;50.996;13.716;2023-03-13T01:57:29;11.23;;;3.00;;
9834;SDS011;4956;50.996;13.716;2023-03-13T02:00:51;9.30;;;2.13;;
9834;SDS011;4956;50.996;13.716;2023-03-13T02:04:12;11.95;;;3.40;;
9834;SDS011;4956;50.996;13.716;2023-03-13T02:07:35;10.23;;;2.60;;
9834;SDS011;4956;50.996;13.716;2023-03-13T02:11:02;10.48;;;2.83;;
9834;SDS011;4956;50.996;13.716;2023-03-13T02:14:26;11.73;;;2.88;;
9834;SDS011;4956;50.996;13.716;2023-03-13T02:17:47;11.43;;;2.70;;
9834;SDS011;4956;50.996;13.716;2023-03-13T02:28:46;9.88;;;2.50;;
9834;SDS011;4956;50.996;13.716;2023-03-13T02:32:08;12.95;;;2.80;;
9834;SDS011;4956;50.996;13.716;2023-03-13T02:35:29;11.55;;;2.90;;
9834;SDS011;4956;50.996;13.716;2023-03-13T02:38:54;9.75;;;2.47;;
9834;SDS011;4956;50.996;13.716;2023-03-13T02:42:18;10.10;;;2.58;;
9834;SDS011;4956;50.996;13.716;2023-03-13T02:45:41;11.35;;;2.80;;
9834;SDS011;4956;50.996;13.716;2023-03-13T02:49:15;15.13;;;3.33;;
9834;SDS011;4956;50.996;13.716;2023-03-13T02:52:42;15.27;;;2.95;;
9834;SDS011;4956;50.996;13.716;2023-03-13T02:56:06;14.23;;;3.00;;
9834;SDS011;4956;50.996;13.716;2023-03-13T02:59:27;12.68;;;2.70;;
9834;SDS011;4956;50.996;13.716;2023-03-13T03:02:47;11.60;;;2.80;;
9834;SDS011;4956;50.996;13.716;2023-03-13T03:06:08;11.70;;;2.95;;
9834;SDS011;4956;50.996;13.716;2023-03-13T03:09:31;11.07;;;2.60;;
9834;SDS011;4956;50.996;13.716;2023-03-13T03:12:56;9.35;;;2.90;;
9834;SDS011;4956;50.996;13.716;2023-03-13T03:16:16;10.57;;;2.58;;
9834;SDS011;4956;50.996;13.716;2023-03-13T03:19:40;13.73;;;3.00;;
9834;SDS011;4956;50.996;13.716;2023-03-13T03:23:02;13.02;;;2.88;;
9834;SDS011;4956;50.996;13.716;2023-03-13T03:26:22;11.85;;;3.05;;
9834;SDS011;4956;50.996;13.716;2023-03-13T03:29:43;13.43;;;2.30;;
9834;SDS011;4956;50.996;13.716;2023-03-13T03:33:04;14.02;;;3.10;;
9834;SDS011;4956;50.996;13.716;2023-03-13T03:36:24;9.60;;;2.60;;
9834;SDS011;4956;50.996;13.716;2023-03-13T03:39:45;10.80;;;2.38;;
9834;SDS011;4956;50.996;13.716;2023-03-13T03:43:06;15.20;;;2.58;;
9834;SDS011;4956;50.996;13.716;2023-03-13T03:46:26;12.82;;;2.88;;
9834;SDS011;4956;50.996;13.716;2023-03-13T03:49:48;9.05;;;2.45;;
9834;SDS011;4956;50.996;13.716;2023-03-13T03:53:09;13.32;;;2.67;;
9834;SDS011;4956;50.996;13.716;2023-03-13T03:56:32;11.73;;;2.50;;
9834;SDS011;4956;50.996;13.716;2023-03-13T03:59:54;12.50;;;2.83;;
9834;SDS011;4956;50.996;13.716;2023-03-13T04:03:16;10.82;;;2.63;;
9834;SDS011;4956;50.996;13.716;2023-03-13T04:06:36;12.75;;;2.60;;
9834;SDS011;4956;50.996;13.716;2023-03-13T04:09:59;11.98;;;2.55;;
9834;SDS011;4956;50.996;13.716;2023-03-13T04:13:27;12.30;;;2.60;;
9834;SDS011;4956;50.996;13.716;2023-03-13T04:16:51;13.60;;;2.88;;
9834;SDS011;4956;50.996;13.716;2023-03-13T04:20:11;10.20;;;2.88;;
9834;SDS011;4956;50.996;13.716;2023-03-13T04:23:34;15.05;;;2.70;;
9834;SDS011;4956;50.996;13.716;2023-03-13T04:26:54;13.32;;;2.88;;
9834;SDS011;4956;50.996;13.716;2023-03-13T04:30:15;12.32;;;2.72;;
9834;SDS011;4956;50.996;13.716;2023-03-13T04:33:41;12.63;;;3.17;;
9834;SDS011;4956;50.996;13.716;2023-03-13T04:37:11;13.77;;;2.67;;
9834;SDS011;4956;50.996;13.716;2023-03-13T04:40:49;13.05;;;2.53;;
9834;SDS011;4956;50.996;13.716;2023-03-13T04:44:26;13.40;;;2.70;;
9834;SDS011;4956;50.996;13.716;2023-03-13T04:48:07;10.73;;;2.25;;
9834;SDS011;4956;50.996;13.716;2023-03-13T04:51:36;14.93;;;2.70;;
9834;SDS011;4956;50.996;13.716;2023-03-13T04:55:11;13.13;;;2.88;;
9834;SDS011;4956;50.996;13.716;2023-03-13T04:58:52;11.00;;;2.40;;
9834;SDS011;4956;50.996;13.716;2023-03-13T05:02:33;12.85;;;2.90;;
9834;SDS011;4956;50.996;13.716;2023-03-13T05:06:14;10.43;;;2.38;;
9834;SDS011;4956;50.996;13.716;2023-03-13T05:09:51;13.75;;;2.47;;
9834;SDS011;4956;50.996;13.716;2023-03-13T05:13:31;10.00;;;2.40;;
9834;SDS011;4956;50.996;13.716;2023-03-13T05:17:01;14.23;;;3.17;;
9834;SDS011;4956;50.996;13.716;2023-03-13T05:20:40;9.38;;;2.28;;
9834;SDS011;4956;50.996;13.716;2023-03-13T05:24:33;15.32;;;2.83;;
9834;SDS011;4956;50.996;13.716;2023-03-13T05:28:04;12.98;;;2.53;;
9834;SDS011;4956;50.996;13.716;2023-03-13T05:31:37;15.43;;;2.70;;
9834;SDS011;4956;50.996;13.716;2023-03-13T05:35:07;13.55;;;2.88;;
9834;SDS011;4956;50.996;13.716;2023-03-13T05:38:46;13.57;;;2.90;;
9834;SDS011;4956;50.996;13.716;2023-03-13T05:42:18;13.38;;;2.35;;
9834;SDS011;4956;50.996;13.716;2023-03-13T05:46:02;15.45;;;2.88;;
9834;SDS011;4956;50.996;13.716;2023-03-13T05:49:37;9.57;;;2.08;;
9834;SDS011;4956;50.996;13.716;2023-03-13T05:53:19;14.10;;;3.00;;
9834;SDS011;4956;50.996;13.716;2023-03-13T05:56:58;9.52;;;2.45;;
9834;SDS011;4956;50.996;13.716;2023-03-13T06:00:30;12.50;;;2.70;;
9834;SDS011;4956;50.996;13.716;2023-03-13T06:04:11;10.00;;;2.55;;
9834;SDS011;4956;50.996;13.716;2023-03-13T06:07:33;10.68;;;2.30;;
9834;SDS011;4956;50.996;13.716;2023-03-13T06:10:53;10.95;;;2.75;;
9834;SDS011;4956;50.996;13.716;2023-03-13T06:14:14;8.50;;;2.45;;
9834;SDS011;4956;50.996;13.716;2023-03-13T06:17:55;13.73;;;3.33;;
9834;SDS011;4956;50.996;13.716;2023-03-13T06:21:15;10.15;;;2.03;;
9834;SDS011;4956;50.996;13.716;2023-03-13T06:24:35;10.82;;;2.53;;
9834;SDS011;4956;50.996;13.716;2023-03-13T06:27:56;6.63;;;1.67;;
9834;SDS011;4956;50.996;13.716;2023-03-13T06:31:16;10.25;;;2.20;;
9834;SDS011;4956;50.996;13.716;2023-03-13T06:34:36;10.13;;;2.15;;
9834;SDS011;4956;50.996;13.716;2023-03-13T06:37:57;9.10;;;2.08;;
9834;SDS011;4956;50.996;13.716;2023-03-13T06:41:19;10.43;;;2.28;;
9834;SDS011;4956;50.996;13.716;2023-03-13T06:44:40;9.00;;;2.42;;
9834;SDS011;4956;50.996;13.716;2023-03-13T06:48:01;13.02;;;2.90;;
9834;SDS011;4956;50.996;13.716;2023-03-13T06:51:22;9.95;;;2.90;;
9834;SDS011;4956;50.996;13.716;2023-03-13T06:54:42;8.23;;;2.10;;
9834;SDS011;4956;50.996;13.716;2023-03-13T06:58:02;9.13;;;3.00;;
9834;SDS011;4956;50.996;13.716;2023-03-13T07:01:22;8.68;;;3.70;;
9834;SDS011;4956;50.996;13.716;2023-03-13T07:04:43;11.65;;;3.15;;
9834;SDS011;4956;50.996;13.716;2023-03-13T07:08:05;6.65;;;2.90;;
9834;SDS011;4956;50.996;13.716;2023-03-13T07:11:25;9.15;;;2.92;;
9834;SDS011;4956;50.996;13.716;2023-03-13T07:14:46;10.73;;;2.65;;
9834;SDS011;4956;50.996;13.716;2023-03-13T07:18:06;7.18;;;2.72;;
9834;SDS011;4956;50.996;13.716;2023-03-13T07:21:26;9.48;;;2.35;;
9834;SDS011;4956;50.996;13.716;2023-03-13T07:24:47;8.77;;;2.03;;
9834;SDS011;4956;50.996;13.716;2023-03-13T07:28:07;8.68;;;2.40;;
9834;SDS011;4956;50.996;13.716;2023-03-13T07:31:28;8.20;;;2.35;;
9834;SDS011;4956;50.996;13.716;2023-03-13T07:34:52;7.88;;;2.28;;
9834;SDS011;4956;50.996;13.716;2023-03-13T07:38:12;5.70;;;2.10;;
9834;SDS011;4956;50.996;13.716;2023-03-13T07:41:32;9.02;;;2.17;;
9834;SDS011;4956;50.996;13.716;2023-03-13T07:44:53;7.45;;;2.13;;
9834;SDS011;4956;50.996;13.716;2023-03-13T07:48:13;7.00;;;2.33;;
9834;SDS011;4956;50.996;13.716;2023-03-13T07:51:33;6.57;;;2.20;;
9834;SDS011;4956;50.996;13.716;2023-03-13T07:54:54;8.32;;;2.28;;
9834;SDS011;4956;50.996;13.716;2023-03-13T07:58:14;6.10;;;2.10;;
9834;SDS011;4956;50.996;13.716;2023-03-13T08:01:34;8.90;;;2.13;;
9834;SDS011;4956;50.996;13.716;2023-03-13T08:04:55;7.15;;;2.25;;
9834;SDS011;4956;50.996;13.716;2023-03-13T08:08:15;4.73;;;1.90;;
9834;SDS011;4956;50.996;13.716;2023-03-13T08:11:36;6.18;;;2.13;;
9834;SDS011;4956;50.996;13.716;2023-03-13T08:14:57;6.80;;;1.90;;
9834;SDS011;4956;50.996;13.716;2023-03-13T08:18:17;6.72;;;2.55;;
9834;SDS011;4956;50.996;13.716;2023-03-13T08:21:38;7.67;;;2.03;;
9834;SDS011;4956;50.996;13.716;2023-03-13T08:24:58;5.65;;;2.20;;
9834;SDS011;4956;50.996;13.716;2023-03-13T08:28:18;7.93;;;2.08;;
9834;SDS011;4956;50.996;13.716;2023-03-13T08:31:43;5.45;;;2.30;;
9834;SDS011;4956;50.996;13.716;2023-03-13T08:35:08;4.85;;;1.90;;
9834;SDS011;4956;50.996;13.716;2023-03-13T08:38:28;5.25;;;2.30;;
9834;SDS011;4956;50.996;13.716;2023-03-13T08:41:48;4.47;;;1.80;;
9834;SDS011;4956;50.996;13.716;2023-03-13T08:45:09;9.60;;;2.42;;
9834;SDS011;4956;50.996;13.716;2023-03-13T08:48:29;3.88;;;2.13;;
9834;SDS011;4956;50.996;13.716;2023-03-13T08:51:50;5.38;;;1.92;;
9834;SDS011;4956;50.996;13.716;2023-03-13T08:55:10;4.47;;;1.83;;
9834;SDS011;4956;50.996;13.716;2023-03-13T08:58:30;7.00;;;2.40;;
9834;SDS011;4956;50.996;13.716;2023-03-13T09:01:51;5.47;;;2.00;;
9834;SDS011;4956;50.996;13.716;2023-03-13T09:05:11;5.50;;;2.05;;
9834;SDS011;4956;50.996;13.716;2023-03-13T09:08:31;4.75;;;1.73;;
9834;SDS011;4956;50.996;13.716;2023-03-13T09:11:56;5.30;;;1.75;;
9834;SDS011;4956;50.996;13.716;2023-03-13T09:15:16;6.47;;;1.60;;
9834;SDS011;4956;50.996;13.716;2023-03-13T09:18:36;4.80;;;1.52;;
9834;SDS011;4956;50.996;13.716;2023-03-13T09:21:57;3.83;;;1.60;;
9834;SDS011;4956;50.996;13.716;2023-03-13T09:25:18;3.63;;;1.55;;
9834;SDS011;4956;50.996;13.716;2023-03-13T09:28:38;2.85;;;1.40;;
9834;SDS011;4956;50.996;13.716;2023-03-13T09:35:39;3.75;;;1.40;;
9834;SDS011;4956;50.996;13.716;2023-03-13T09:38:59;2.28;;;1.30;;
9834;SDS011;4956;50.996;13.716;2023-03-13T09:42:21;2.72;;;1.23;;
9834;SDS011;4956;50.996;13.716;2023-03-13T09:45:45;3.58;;;1.20;;
9834;SDS011;4956;50.996;13.716;2023-03-13T09:52:39;3.20;;;1.20;;
9834;SDS011;4956;50.996;13.716;2023-03-13T09:56:01;3.10;;;1.10;;
9834;SDS011;4956;50.996;13.716;2023-03-13T09:59:27;1.48;;;1.05;;
9834;SDS011;4956;50.996;13.716;2023-03-13T10:06:32;3.05;;;1.25;;
9834;SDS011;4956;50.996;13.716;2023-03-13T10:09:54;2.35;;;0.90;;
9834;SDS011;4956;50.996;13.716;2023-03-13T10:13:18;1.77;;;1.00;;
9834;SDS011;4956;50.996;13.716;2023-03-13T10:17:00;1.30;;;0.80;;
9834;SDS011;4956;50.996;13.716;2023-03-13T10:20:25;1.33;;;0.80;;
9834;SDS011;4956;50.996;13.716;2023-03-13T10:27:15;2.58;;;1.00;;
9834;SDS011;4956;50.996;13.716;2023-03-13T10:30:35;2.17;;;0.75;;
9834;SDS011;4956;50.996;13.716;2023-03-13T10:34:11;1.02;;;0.63;;
9834;SDS011;4956;50.996;13.716;2023-03-13T10:37:39;2.13;;;0.80;;
9834;SDS011;4956;50.996;13.716;2023-03-13T10:41:06;0.93;;;0.60;;
9834;SDS011;4956;50.996;13.716;2023-03-13T10:44:48;1.60;;;0.70;;
9834;SDS011;4956;50.996;13.716;2023-03-13T10:48:12;1.05;;;0.60;;
9834;SDS011;4956;50.996;13.716;2023-03-13T10:51:45;1.63;;;0.63;;
9834;SDS011;4956;50.996;13.716;2023-03-13T10:55:27;1.20;;;0.75;;
9834;SDS011;4956;50.996;13.716;2023-03-13T10:58:48;1.03;;;0.70;;
9834;SDS011;4956;50.996;13.716;2023-03-13T11:06:00;0.90;;;0.80;;
9834;SDS011;4956;50.996;13.716;2023-03-13T11:09:22;0.80;;;0.52;;
9834;SDS011;4956;50.996;13.716;2023-03-13T11:12:50;1.67;;;0.90;;
9834;SDS011;4956;50.996;13.716;2023-03-13T11:16:21;1.55;;;0.70;;
9834;SDS011;4956;50.996;13.716;2023-03-13T11:19:51;3.90;;;0.88;;
9834;SDS011;4956;50.996;13.716;2023-03-13T11:23:18;0.90;;;0.60;;
9834;SDS011;4956;50.996;13.716;2023-03-13T11:26:59;1.20;;;0.70;;
9834;SDS011;4956;50.996;13.716;2023-03-13T11:37:40;3.15;;;0.93;;
9834;SDS011;4956;50.996;13.716;2023-03-13T11:44:52;1.40;;;0.80;;
9834;SDS011;4956;50.996;13.716;2023-03-13T11:59:34;2.28;;;0.70;;
9834;SDS011;4956;50.996;13.716;2023-03-13T12:06:54;2.33;;;0.80;;
9834;SDS011;4956;50.996;13.716;2023-03-13T12:10:28;0.98;;;0.77;;
9834;SDS011;4956;50.996;13.716;2023-03-13T12:14:00;2.13;;;0.82;;
9834;SDS011;4956;50.996;13.716;2023-03-13T12:20:57;1.23;;;0.60;;
9834;SDS011;4956;50.996;13.716;2023-03-13T12:24:39;2.13;;;0.70;;
9834;SDS011;4956;50.996;13.716;2023-03-13T12:28:08;3.10;;;0.88;;
9834;SDS011;4956;50.996;13.716;2023-03-13T12:31:56;1.65;;;0.90;;
9834;SDS011;4956;50.996;13.716;2023-03-13T12:38:54;1.27;;;0.90;;
9834;SDS011;4956;50.996;13.716;2023-03-13T12:56:48;1.23;;;0.77;;
9834;SDS011;4956;50.996;13.716;2023-03-13T13:00:22;1.23;;;0.80;;
9834;SDS011;4956;50.996;13.716;2023-03-13T13:03:49;2.28;;;0.60;;
9834;SDS011;4956;50.996;13.716;2023-03-13T13:07:22;0.98;;;0.80;;
9834;SDS011;4956;50.996;13.716;2023-03-13T13:10:45;0.75;;;0.70;;
9834;SDS011;4956;50.996;13.716;2023-03-13T13:24:57;1.05;;;0.75;;
9834;SDS011;4956;50.996;13.716;2023-03-13T13:38:43;1.65;;;0.80;;
9834;SDS011;4956;50.996;13.716;2023-03-13T13:45:59;3.38;;;0.85;;
9834;SDS011;4956;50.996;13.716;2023-03-13T13:49:21;0.80;;;0.80;;
9834;SDS011;4956;50.996;13.716;2023-03-13T13:52:44;2.60;;;0.82;;
9834;SDS011;4956;50.996;13.716;2023-03-13T13:56:24;1.05;;;0.70;;
9834;SDS011;4956;50.996;13.716;2023-03-13T13:59:51;1.00;;;0.80;;
9834;SDS011;4956;50.996;13.716;2023-03-13T14:03:33;1.08;;;0.63;;
9834;SDS011;4956;50.996;13.716;2023-03-13T14:07:01;1.25;;;0.90;;
9834;SDS011;4956;50.996;13.716;2023-03-13T14:10:30;4.07;;;1.00;;
9834;SDS011;4956;50.996;13.716;2023-03-13T14:17:40;1.70;;;1.10;;
9834;SDS011;4956;50.996;13.716;2023-03-13T14:21:03;1.27;;;0.80;;
9834;SDS011;4956;50.996;13.716;2023-03-13T14:24:32;9.88;;;8.63;;
9834;SDS011;4956;50.996;13.716;2023-03-13T14:27:53;25.13;;;19.65;;
9834;SDS011;4956;50.996;13.716;2023-03-13T14:31:27;1.55;;;1.15;;
9834;SDS011;4956;50.996;13.716;2023-03-13T14:34:49;1.30;;;0.80;;
9834;SDS011;4956;50.996;13.716;2023-03-13T14:38:15;1.67;;;0.82;;
9834;SDS011;4956;50.996;13.716;2023-03-13T14:41:39;1.38;;;0.88;;
9834;SDS011;4956;50.996;13.716;2023-03-13T14:45:10;0.73;;;0.63;;
9834;SDS011;4956;50.996;13.716;2023-03-13T14:48:41;0.70;;;0.70;;
9834;SDS011;4956;50.996;13.716;2023-03-13T14:55:25;1.00;;;0.80;;
9834;SDS011;4956;50.996;13.716;2023-03-13T14:58:47;1.42;;;0.95;;
9834;SDS011;4956;50.996;13.716;2023-03-13T15:02:15;4.53;;;1.13;;
9834;SDS011;4956;50.996;13.716;2023-03-13T15:05:39;1.55;;;1.10;;
9834;SDS011;4956;50.996;13.716;2023-03-13T15:12:28;2.83;;;1.20;;
9834;SDS011;4956;50.996;13.716;2023-03-13T15:15:50;2.40;;;1.23;;
9834;SDS011;4956;50.996;13.716;2023-03-13T15:19:11;1.58;;;1.20;;
9834;SDS011;4956;50.996;13.716;2023-03-13T15:22:32;2.22;;;1.13;;
9834;SDS011;4956;50.996;13.716;2023-03-13T15:25:54;1.77;;;1.23;;
9834;SDS011;4956;50.996;13.716;2023-03-13T15:29:15;1.50;;;0.85;;
9834;SDS011;4956;50.996;13.716;2023-03-13T15:32:37;1.02;;;0.90;;
9834;SDS011;4956;50.996;13.716;2023-03-13T15:35:58;2.10;;;0.85;;
9834;SDS011;4956;50.996;13.716;2023-03-13T15:39:18;1.13;;;0.88;;
9834;SDS011;4956;50.996;13.716;2023-03-13T15:42:39;1.05;;;0.90;;
9834;SDS011;4956;50.996;13.716;2023-03-13T15:46:00;2.10;;;1.50;;
9834;SDS011;4956;50.996;13.716;2023-03-13T15:49:20;1.35;;;0.95;;
9834;SDS011;4956;50.996;13.716;2023-03-13T15:52:40;1.88;;;1.08;;
9834;SDS011;4956;50.996;13.716;2023-03-13T15:56:01;1.10;;;1.00;;
9834;SDS011;4956;50.996;13.716;2023-03-13T15:59:25;1.30;;;0.95;;
9834;SDS011;4956;50.996;13.716;2023-03-13T16:02:45;1.63;;;1.00;;
9834;SDS011;4956;50.996;13.716;2023-03-13T16:06:16;1.50;;;0.87;;
9834;SDS011;4956;50.996;13.716;2023-03-13T16:09:38;2.60;;;1.00;;
9834;SDS011;4956;50.996;13.716;2023-03-13T16:12:59;0.95;;;0.93;;
9834;SDS011;4956;50.996;13.716;2023-03-13T16:16:20;1.05;;;0.95;;
9834;SDS011;4956;50.996;13.716;2023-03-13T16:19:43;1.52;;;1.15;;
9834;SDS011;4956;50.996;13.716;2023-03-13T16:23:04;1.52;;;1.27;;
9834;SDS011;4956;50.996;13.716;2023-03-13T16:26:25;1.33;;;1.20;;
9834;SDS011;4956;50.996;13.716;2023-03-13T16:29:47;1.92;;;1.20;;
9834;SDS011;4956;50.996;13.716;2023-03-13T16:33:07;2.03;;;1.20;;
9834;SDS011;4956;50.996;13.716;2023-03-13T16:36:29;2.47;;;1.02;;
9834;SDS011;4956;50.996;13.716;2023-03-13T16:39:50;1.85;;;1.00;;
9834;SDS011;4956;50.996;13.716;2023-03-13T16:43:11;1.27;;;0.93;;
9834;SDS011;4956;50.996;13.716;2023-03-13T16:46:35;1.10;;;1.00;;
9834;SDS011;4956;50.996;13.716;2023-03-13T16:49:56;1.33;;;1.10;;
9834;SDS011;4956;50.996;13.716;2023-03-13T16:53:16;2.20;;;1.20;;
9834;SDS011;4956;50.996;13.716;2023-03-13T16:56:37;1.87;;;1.30;;
9834;SDS011;4956;50.996;13.716;2023-03-13T16:59:59;1.98;;;1.25;;
9834;SDS011;4956;50.996;13.716;2023-03-13T17:03:19;2.47;;;1.57;;
9834;SDS011;4956;50.996;13.716;2023-03-13T17:06:40;3.20;;;1.60;;
9834;SDS011;4956;50.996;13.716;2023-03-13T17:10:01;2.15;;;1.42;;
9834;SDS011;4956;50.996;13.716;2023-03-13T17:13:21;2.40;;;1.27;;
9834;SDS011;4956;50.996;13.716;2023-03-13T17:16:43;2.20;;;1.70;;
9834;SDS011;4956;50.996;13.716;2023-03-13T17:20:03;7.50;;;1.60;;
9834;SDS011;4956;50.996;13.716;2023-03-13T17:23:25;2.13;;;1.40;;
9834;SDS011;4956;50.996;13.716;2023-03-13T17:26:45;2.75;;;1.40;;
9834;SDS011;4956;50.996;13.716;2023-03-13T17:30:19;3.33;;;1.60;;
9834;SDS011;4956;50.996;13.716;2023-03-13T17:33:47;1.60;;;1.40;;
9834;SDS011;4956;50.996;13.716;2023-03-13T17:37:25;2.85;;;1.40;;
9834;SDS011;4956;50.996;13.716;2023-03-13T17:40:45;2.42;;;1.60;;
9834;SDS011;4956;50.996;13.716;2023-03-13T17:44:06;3.03;;;1.73;;
9834;SDS011;4956;50.996;13.716;2023-03-13T17:47:26;4.43;;;1.73;;
9834;SDS011;4956;50.996;13.716;2023-03-13T17:50:46;3.37;;;1.63;;
9834;SDS011;4956;50.996;13.716;2023-03-13T17:54:07;3.17;;;1.47;;
9834;SDS011;4956;50.996;13.716;2023-03-13T17:57:28;1.85;;;1.52;;
9834;SDS011;4956;50.996;13.716;2023-03-13T18:00:49;1.83;;;1.40;;
9834;SDS011;4956;50.996;13.716;2023-03-13T18:04:09;2.83;;;1.80;;
9834;SDS011;4956;50.996;13.716;2023-03-13T18:07:30;2.30;;;1.67;;
9834;SDS011;4956;50.996;13.716;2023-03-13T18:10:51;2.67;;;1.70;;
9834;SDS011;4956;50.996;13.716;2023-03-13T18:14:11;3.38;;;1.85;;
9834;SDS011;4956;50.996;13.716;2023-03-13T18:17:32;2.05;;;1.50;;
9834;SDS011;4956;50.996;13.716;2023-03-13T18:20:52;2.13;;;1.50;;
9834;SDS011;4956;50.996;13.716;2023-03-13T18:24:13;4.07;;;1.80;;
9834;SDS011;4956;50.996;13.716;2023-03-13T18:27:36;3.90;;;1.67;;
9834;SDS011;4956;50.996;13.716;2023-03-13T18:30:56;3.80;;;1.63;;
9834;SDS011;4956;50.996;13.716;2023-03-13T18:34:16;3.40;;;1.95;;
9834;SDS011;4956;50.996;13.716;2023-03-13T18:37:37;3.73;;;1.93;;
9834;SDS011;4956;50.996;13.716;2023-03-13T18:40:57;2.60;;;2.00;;
9834;SDS011;4956;50.996;13.716;2023-03-13T18:44:17;2.93;;;1.90;;
9834;SDS011;4956;50.996;13.716;2023-03-13T18:47:39;3.35;;;2.08;;
9834;SDS011;4956;50.996;13.716;2023-03-13T18:51:00;2.80;;;1.67;;
9834;SDS011;4956;50.996;13.716;2023-03-13T18:54:20;2.65;;;1.83;;
9834;SDS011;4956;50.996;13.716;2023-03-13T18:57:40;2.20;;;1.60;;
9834;SDS011;4956;50.996;13.716;2023-03-13T19:01:01;2.45;;;1.70;;
9834;SDS011;4956;50.996;13.716;2023-03-13T19:04:21;4.20;;;1.63;;
9834;SDS011;4956;50.996;13.716;2023-03-13T19:07:41;2.70;;;1.55;;
9834;SDS011;4956;50.996;13.716;2023-03-13T19:11:02;1.70;;;1.60;;
9834;SDS011;4956;50.996;13.716;2023-03-13T19:14:22;2.40;;;1.80;;
9834;SDS011;4956;50.996;13.716;2023-03-13T19:17:42;1.67;;;1.50;;
9834;SDS011;4956;50.996;13.716;2023-03-13T19:21:04;3.28;;;1.80;;
9834;SDS011;4956;50.996;13.716;2023-03-13T19:24:32;5.07;;;2.20;;
9834;SDS011;4956;50.996;13.716;2023-03-13T19:27:55;2.72;;;1.88;;
9834;SDS011;4956;50.996;13.716;2023-03-13T19:31:15;4.17;;;1.77;;
9834;SDS011;4956;50.996;13.716;2023-03-13T19:34:35;5.13;;;2.08;;
9834;SDS011;4956;50.996;13.716;2023-03-13T19:37:56;4.40;;;2.00;;
9834;SDS011;4956;50.996;13.716;2023-03-13T19:41:16;3.20;;;1.63;;
9834;SDS011;4956;50.996;13.716;2023-03-13T19:44:37;2.92;;;1.85;;
9834;SDS011;4956;50.996;13.716;2023-03-13T19:47:59;2.85;;;1.95;;
9834;SDS011;4956;50.996;13.716;2023-03-13T19:51:19;2.97;;;1.80;;
9834;SDS011;4956;50.996;13.716;2023-03-13T19:54:39;2.47;;;1.67;;
9834;SDS011;4956;50.996;13.716;2023-03-13T19:58:00;4.25;;;1.60;;
9834;SDS011;4956;50.996;13.716;2023-03-13T20:01:21;2.17;;;1.58;;
9834;SDS011;4956;50.996;13.716;2023-03-13T20:04:41;2.45;;;1.20;;
9834;SDS011;4956;50.996;13.716;2023-03-13T20:08:04;2.22;;;1.30;;
9834;SDS011;4956;50.996;13.716;2023-03-13T20:11:25;3.33;;;1.40;;
9834;SDS011;4956;50.996;13.716;2023-03-13T20:14:46;1.15;;;0.90;;
9834;SDS011;4956;50.996;13.716;2023-03-13T20:18:06;0.97;;;0.80;;
9834;SDS011;4956;50.996;13.716;2023-03-13T20:21:28;0.90;;;0.80;;
9834;SDS011;4956;50.996;13.716;2023-03-13T20:24:49;1.02;;;0.63;;
9834;SDS011;4956;50.996;13.716;2023-03-13T20:28:10;1.50;;;0.68;;
9834;SDS011;4956;50.996;13.716;2023-03-13T20:31:30;1.20;;;0.68;;
9834;SDS011;4956;50.996;13.716;2023-03-13T20:34:52;1.65;;;0.70;;
9834;SDS011;4956;50.996;13.716;2023-03-13T20:38:12;1.30;;;0.75;;
9834;SDS011;4956;50.996;13.716;2023-03-13T20:41:33;1.25;;;0.55;;
9834;SDS011;4956;50.996;13.716;2023-03-13T20:44:53;0.80;;;0.70;;
9834;SDS011;4956;50.996;13.716;2023-03-13T20:48:15;2.72;;;0.70;;
9834;SDS011;4956;50.996;13.716;2023-03-13T20:51:35;1.10;;;0.70;;
9834;SDS011;4956;50.996;13.716;2023-03-13T20:54:58;1.10;;;0.90;;
9834;SDS011;4956;50.996;13.716;2023-03-13T20:58:18;0.93;;;0.70;;
9834;SDS011;4956;50.996;13.716;2023-03-13T21:01:39;0.93;;;0.80;;
9834;SDS011;4956;50.996;13.716;2023-03-13T21:04:59;0.50;;;0.50;;
9834;SDS011;4956;50.996;13.716;2023-03-13T21:08:19;0.70;;;0.67;;
9834;SDS011;4956;50.996;13.716;2023-03-13T21:11:40;0.70;;;0.70;;
9834;SDS011;4956;50.996;13.716;2023-03-13T21:15:00;1.60;;;0.90;;
9834;SDS011;4956;50.996;13.716;2023-03-13T21:18:24;2.75;;;0.88;;
9834;SDS011;4956;50.996;13.716;2023-03-13T21:21:44;0.93;;;0.63;;
9834;SDS011;4956;50.996;13.716;2023-03-13T21:25:05;2.95;;;0.75;;
9834;SDS011;4956;50.996;13.716;2023-03-13T21:28:26;0.80;;;0.70;;
9834;SDS011;4956;50.996;13.716;2023-03-13T21:31:47;0.88;;;0.70;;
9834;SDS011;4956;50.996;13.716;2023-03-13T21:35:07;1.38;;;0.80;;
9834;SDS011;4956;50.996;13.716;2023-03-13T21:38:28;1.17;;;0.73;;
9834;SDS011;4956;50.996;13.716;2023-03-13T21:41:48;0.77;;;0.60;;
9834;SDS011;4956;50.996;13.716;2023-03-13T21:45:09;0.85;;;0.73;;
9834;SDS011;4956;50.996;13.716;2023-03-13T21:48:30;0.77;;;0.77;;
9834;SDS011;4956;50.996;13.716;2023-03-13T21:51:50;1.40;;;1.13;;
9834;SDS011;4956;50.996;13.716;2023-03-13T21:55:10;0.80;;;0.80;;
9834;SDS011;4956;50.996;13.716;2023-03-13T21:58:31;0.60;;;0.60;;
9834;SDS011;4956;50.996;13.716;2023-03-13T22:01:54;0.75;;;0.60;;
9834;SDS011;4956;50.996;13.716;2023-03-13T22:05:15;1.20;;;0.80;;
9834;SDS011;4956;50.996;13.716;2023-03-13T22:08:35;2.35;;;0.70;;
9834;SDS011;4956;50.996;13.716;2023-03-13T22:11:55;1.23;;;0.80;;
9834;SDS011;4956;50.996;13.716;2023-03-13T22:15:16;0.82;;;0.70;;
9834;SDS011;4956;50.996;13.716;2023-03-13T22:18:36;0.60;;;0.60;;
9834;SDS011;4956;50.996;13.716;2023-03-13T22:21:57;1.63;;;1.10;;
9834;SDS011;4956;50.996;13.716;2023-03-13T22:25:18;1.37;;;1.10;;
9834;SDS011;4956;50.996;13.716;2023-03-13T22:28:38;1.33;;;0.85;;
9834;SDS011;4956;50.996;13.716;2023-03-13T22:32:00;0.70;;;0.70;;